createdAt,value
2018-08-31T00:03:43.784Z,6.45
2018-08-31T00:09:14.727Z,6.25
2018-08-31T00:11:44.661Z,6.35
2018-08-31T00:14:14.018Z,5.85
2018-08-31T00:16:43.754Z,5.87
2018-08-31T00:19:13.826Z,5.97
2018-08-31T00:21:43.609Z,6.00
2018-08-31T00:24:24.424Z,5.45
2018-08-31T00:27:04.807Z,5.80
2018-08-31T00:32:46.660Z,5.32
2018-08-31T00:35:16.525Z,4.93
2018-08-31T00:37:46.773Z,5.25
2018-08-31T00:40:16.770Z,5.05
2018-08-31T00:42:47.067Z,5.45
2018-08-31T00:45:16.919Z,5.60
2018-08-31T00:47:46.708Z,5.25
2018-08-31T00:50:16.029Z,5.68
2018-08-31T00:52:45.225Z,5.28
2018-08-31T00:55:15.453Z,4.78
2018-08-31T00:57:44.945Z,5.00
2018-08-31T01:00:14.710Z,5.03
2018-08-31T01:02:43.966Z,4.72
2018-08-31T01:05:16.538Z,5.20
2018-08-31T01:07:46.962Z,4.72
2018-08-31T01:10:17.392Z,4.60
2018-08-31T01:12:46.891Z,4.43
2018-08-31T01:15:16.455Z,4.50
2018-08-31T01:17:45.780Z,4.20
2018-08-31T01:20:15.410Z,4.62
2018-08-31T01:22:45.138Z,4.70
2018-08-31T01:25:15.527Z,4.47
2018-08-31T01:27:45.136Z,4.35
2018-08-31T01:30:14.427Z,4.00
2018-08-31T01:32:44.640Z,3.90
2018-08-31T01:35:14.292Z,4.40
2018-08-31T01:37:44.024Z,4.60
2018-08-31T01:40:13.891Z,4.30
2018-08-31T01:42:43.528Z,4.40
2018-08-31T01:45:13.051Z,4.40
2018-08-31T01:47:42.721Z,4.20
2018-08-31T01:50:12.352Z,4.70
2018-08-31T01:52:41.942Z,4.68
2018-08-31T01:55:11.687Z,4.55
2018-08-31T01:57:41.995Z,4.50
2018-08-31T02:00:11.683Z,4.60
2018-08-31T02:02:41.207Z,4.10
2018-08-31T02:05:10.848Z,4.32
2018-08-31T02:07:40.547Z,3.90
2018-08-31T02:10:10.307Z,4.10
2018-08-31T02:12:39.754Z,4.62
2018-08-31T02:15:09.256Z,4.40
2018-08-31T02:17:39.057Z,4.32
2018-08-31T02:20:08.860Z,4.30
2018-08-31T02:22:38.900Z,4.75
2018-08-31T02:25:08.332Z,4.10
2018-08-31T02:27:38.599Z,3.55
2018-08-31T02:30:09.293Z,3.85
2018-08-31T02:32:39.216Z,3.08
2018-08-31T02:35:08.959Z,3.10
2018-08-31T02:37:39.569Z,2.95
2018-08-31T02:40:12.372Z,3.80
2018-08-31T02:42:42.059Z,4.00
2018-08-31T02:45:11.612Z,3.20
2018-08-31T02:47:41.120Z,3.80
2018-08-31T02:50:12.073Z,3.62
2018-08-31T02:52:43.324Z,3.37
2018-08-31T02:55:13.056Z,3.37
2018-08-31T02:57:42.793Z,3.50
2018-08-31T03:00:12.548Z,3.00
2018-08-31T03:02:41.648Z,3.22
2018-08-31T03:05:12.324Z,3.33
2018-08-31T03:07:42.025Z,2.90
2018-08-31T03:10:11.650Z,3.00
2018-08-31T03:12:41.380Z,3.12
2018-08-31T03:15:11.914Z,2.95
2018-08-31T03:17:42.536Z,3.00
2018-08-31T03:20:13.459Z,2.62
2018-08-31T03:22:43.388Z,3.20
2018-08-31T03:25:12.848Z,3.10
2018-08-31T03:27:43.397Z,2.90
2018-08-31T03:30:12.935Z,3.37
2018-08-31T03:32:44.412Z,2.78
2018-08-31T03:35:14.802Z,3.20
2018-08-31T03:37:45.596Z,2.75
2018-08-31T03:40:15.421Z,2.80
2018-08-31T03:42:46.204Z,2.67
2018-08-31T03:45:16.684Z,2.97
2018-08-31T03:47:46.250Z,2.50
2018-08-31T03:50:16.962Z,2.58
2018-08-31T03:52:47.333Z,2.50
2018-08-31T03:55:17.068Z,2.40
2018-08-31T03:57:46.941Z,2.60
2018-08-31T04:00:16.045Z,2.80
2018-08-31T04:02:45.719Z,2.70
2018-08-31T04:05:15.113Z,2.45
2018-08-31T04:07:46.023Z,2.55
2018-08-31T04:10:16.176Z,2.75
2018-08-31T04:12:46.613Z,2.80
2018-08-31T04:15:16.258Z,2.60
2018-08-31T04:17:46.844Z,2.60
2018-08-31T04:20:17.232Z,2.58
2018-08-31T04:22:48.367Z,2.30
2018-08-31T04:25:17.950Z,2.60
2018-08-31T04:27:48.643Z,2.83
2018-08-31T04:30:18.104Z,2.45
2018-08-31T04:32:47.653Z,2.42
2018-08-31T04:35:17.033Z,2.33
2018-08-31T04:37:46.512Z,2.53
2018-08-31T04:40:16.359Z,2.78
2018-08-31T04:42:46.297Z,3.12
2018-08-31T04:45:17.133Z,2.92
2018-08-31T04:47:47.184Z,2.58
2018-08-31T04:50:16.391Z,2.53
2018-08-31T04:52:45.688Z,2.80
2018-08-31T04:55:14.838Z,2.40
2018-08-31T04:57:44.688Z,2.53
2018-08-31T05:00:14.461Z,2.30
2018-08-31T05:02:44.808Z,2.67
2018-08-31T05:05:14.620Z,2.35
2018-08-31T05:07:44.805Z,2.20
2018-08-31T05:10:14.577Z,2.30
2018-08-31T05:12:44.340Z,2.53
2018-08-31T05:15:13.727Z,2.37
2018-08-31T05:17:43.449Z,2.00
2018-08-31T05:20:13.077Z,2.40
2018-08-31T05:22:42.865Z,2.00
2018-08-31T05:25:12.353Z,2.20
2018-08-31T05:27:42.078Z,2.03
2018-08-31T05:30:11.738Z,2.90
2018-08-31T05:32:41.427Z,2.45
2018-08-31T05:35:11.147Z,2.37
2018-08-31T05:37:40.440Z,2.42
2018-08-31T05:40:11.097Z,2.20
2018-08-31T05:42:40.565Z,2.20
2018-08-31T05:45:10.609Z,2.03
2018-08-31T05:51:11.837Z,2.20
2018-08-31T05:53:43.148Z,2.28
2018-08-31T05:56:12.801Z,2.20
2018-08-31T05:58:43.534Z,2.90
2018-08-31T06:01:13.180Z,2.50
2018-08-31T06:03:43.968Z,2.78
2018-08-31T06:06:13.575Z,2.50
2018-08-31T06:08:42.831Z,2.58
2018-08-31T06:11:13.051Z,2.45
2018-08-31T06:13:43.485Z,2.75
2018-08-31T06:16:14.865Z,3.12
2018-08-31T06:18:44.318Z,3.17
2018-08-31T06:21:14.567Z,3.37
2018-08-31T06:23:43.473Z,3.08
2018-08-31T06:26:12.685Z,3.33
2018-08-31T06:28:42.576Z,3.47
2018-08-31T06:31:12.127Z,3.53
2018-08-31T06:33:41.844Z,3.10
2018-08-31T06:36:11.424Z,3.40
2018-08-31T06:38:41.069Z,3.28
2018-08-31T06:41:10.887Z,4.07
2018-08-31T06:43:40.639Z,3.65
2018-08-31T06:46:10.556Z,3.42
2018-08-31T06:48:39.904Z,3.30
2018-08-31T06:51:09.610Z,3.53
2018-08-31T06:53:39.031Z,3.62
2018-08-31T06:56:08.475Z,3.28
2018-08-31T06:58:38.102Z,3.62
2018-08-31T07:01:07.696Z,3.55
2018-08-31T07:03:38.343Z,3.25
2018-08-31T07:06:08.676Z,3.12
2018-08-31T07:08:38.438Z,3.00
2018-08-31T07:11:07.855Z,3.10
2018-08-31T07:13:37.921Z,3.60
2018-08-31T07:16:07.408Z,3.22
2018-08-31T07:18:37.069Z,3.20
2018-08-31T07:21:06.563Z,3.05
2018-08-31T07:23:36.863Z,3.03
2018-08-31T07:26:07.208Z,3.00
2018-08-31T07:28:36.784Z,2.83
2018-08-31T07:31:07.565Z,2.60
2018-08-31T07:33:37.027Z,2.95
2018-08-31T07:36:07.306Z,2.85
2018-08-31T07:38:39.053Z,2.80
2018-08-31T07:41:08.800Z,2.80
2018-08-31T07:43:38.412Z,2.70
2018-08-31T07:46:07.658Z,2.83
2018-08-31T07:48:37.236Z,3.00
2018-08-31T07:51:06.978Z,3.08
2018-08-31T07:53:36.636Z,2.95
2018-08-31T07:56:05.806Z,3.10
2018-08-31T07:58:35.941Z,3.22
2018-08-31T08:01:05.463Z,3.08
2018-08-31T08:03:34.997Z,2.95
2018-08-31T08:06:04.463Z,2.80
2018-08-31T08:08:34.220Z,2.80
2018-08-31T08:11:03.616Z,2.72
2018-08-31T08:13:32.992Z,3.15
2018-08-31T08:16:02.739Z,3.12
2018-08-31T08:18:32.567Z,3.08
2018-08-31T08:21:02.924Z,3.03
2018-08-31T08:23:32.353Z,3.05
2018-08-31T08:26:01.783Z,2.72
2018-08-31T08:28:31.492Z,3.20
2018-08-31T08:31:01.045Z,2.70
2018-08-31T08:33:30.443Z,3.12
2018-08-31T08:35:59.994Z,2.70
2018-08-31T08:38:30.507Z,2.83
2018-08-31T08:41:00.240Z,2.65
2018-08-31T08:43:29.823Z,2.70
2018-08-31T08:45:59.375Z,2.75
2018-08-31T08:48:29.021Z,3.15
2018-08-31T08:50:58.537Z,2.85
2018-08-31T08:53:29.394Z,2.78
2018-08-31T08:55:59.111Z,2.85
2018-08-31T08:58:29.732Z,2.87
2018-08-31T09:00:59.518Z,2.83
2018-08-31T09:03:29.007Z,2.85
2018-08-31T09:05:58.599Z,2.70
2018-08-31T09:08:28.328Z,2.78
2018-08-31T09:10:58.573Z,2.80
2018-08-31T09:13:28.132Z,3.25
2018-08-31T09:15:58.518Z,2.87
2018-08-31T09:18:29.682Z,2.60
2018-08-31T09:20:59.246Z,2.72
2018-08-31T09:23:29.940Z,2.80
2018-08-31T09:26:00.351Z,2.75
2018-08-31T09:28:29.914Z,2.97
2018-08-31T09:31:00.245Z,3.08
2018-08-31T09:33:29.753Z,2.78
2018-08-31T09:35:59.425Z,2.78
2018-08-31T09:38:28.949Z,2.75
2018-08-31T09:40:58.277Z,2.90
2018-08-31T09:43:27.466Z,2.70
2018-08-31T09:45:56.805Z,3.15
2018-08-31T09:48:26.331Z,2.92
2018-08-31T09:50:56.348Z,3.00
2018-08-31T09:53:26.438Z,2.85
2018-08-31T09:55:56.030Z,2.95
2018-08-31T09:58:25.710Z,2.97
2018-08-31T10:00:57.293Z,3.12
2018-08-31T10:03:26.928Z,3.00
2018-08-31T10:05:56.435Z,2.95
2018-08-31T10:08:25.812Z,2.70
2018-08-31T10:10:56.527Z,3.03
2018-08-31T10:13:26.247Z,2.62
2018-08-31T10:15:56.983Z,2.95
2018-08-31T10:18:27.886Z,2.53
2018-08-31T10:20:57.646Z,2.70
2018-08-31T10:23:27.204Z,2.40
2018-08-31T10:25:56.615Z,2.47
2018-08-31T10:28:27.425Z,2.55
2018-08-31T10:30:57.540Z,2.40
2018-08-31T10:33:27.191Z,2.85
2018-08-31T10:35:56.818Z,2.58
2018-08-31T10:38:26.196Z,2.58
2018-08-31T10:40:55.757Z,2.50
2018-08-31T10:43:25.671Z,2.85
2018-08-31T10:45:56.427Z,2.35
2018-08-31T10:48:26.836Z,2.30
2018-08-31T10:50:56.508Z,2.60
2018-08-31T10:53:26.068Z,2.42
2018-08-31T10:55:55.393Z,2.42
2018-08-31T10:58:25.043Z,2.47
2018-08-31T11:00:55.440Z,2.45
2018-08-31T11:03:24.796Z,2.05
2018-08-31T11:05:55.577Z,2.58
2018-08-31T11:08:26.265Z,2.20
2018-08-31T11:10:55.749Z,2.08
2018-08-31T11:13:25.128Z,2.20
2018-08-31T11:15:54.565Z,2.15
2018-08-31T11:18:25.008Z,2.28
2018-08-31T11:20:56.614Z,2.40
2018-08-31T11:23:28.172Z,2.25
2018-08-31T11:25:57.633Z,2.00
2018-08-31T11:28:27.028Z,2.25
2018-08-31T11:30:56.981Z,2.20
2018-08-31T11:33:26.531Z,2.17
2018-08-31T11:35:56.795Z,2.12
2018-08-31T11:38:26.313Z,2.30
2018-08-31T11:40:56.288Z,2.40
2018-08-31T11:43:26.074Z,2.33
2018-08-31T11:45:55.813Z,2.20
2018-08-31T11:48:25.229Z,2.33
2018-08-31T11:50:55.643Z,2.10
2018-08-31T11:53:25.221Z,2.17
2018-08-31T11:55:54.778Z,2.10
2018-08-31T11:58:24.418Z,2.03
2018-08-31T12:00:53.721Z,2.15
2018-08-31T12:03:23.228Z,2.00
2018-08-31T12:05:53.304Z,2.00
2018-08-31T12:08:22.974Z,1.95
2018-08-31T12:10:52.519Z,1.80
2018-08-31T12:13:22.237Z,1.83
2018-08-31T12:15:52.558Z,1.70
2018-08-31T12:18:21.891Z,2.00
2018-08-31T12:20:51.237Z,1.70
2018-08-31T12:23:20.993Z,1.40
2018-08-31T12:25:51.409Z,1.45
2018-08-31T12:28:21.907Z,1.70
2018-08-31T12:30:51.170Z,1.50
2018-08-31T12:33:21.310Z,1.67
2018-08-31T12:35:51.918Z,1.70
2018-08-31T12:38:21.230Z,1.70
2018-08-31T12:40:51.426Z,1.70
2018-08-31T12:43:21.129Z,1.77
2018-08-31T12:45:50.693Z,1.50
2018-08-31T12:48:21.520Z,1.58
2018-08-31T12:50:51.414Z,1.37
2018-08-31T12:53:21.159Z,1.45
2018-08-31T12:55:50.502Z,1.50
2018-08-31T12:58:19.969Z,1.80
2018-08-31T13:00:49.249Z,1.52
2018-08-31T13:03:18.699Z,1.60
2018-08-31T13:05:48.013Z,1.80
2018-08-31T13:08:17.225Z,1.77
2018-08-31T13:10:46.615Z,1.48
2018-08-31T13:13:16.009Z,1.35
2018-08-31T13:15:45.310Z,1.73
2018-08-31T13:18:16.872Z,1.58
2018-08-31T13:20:46.348Z,1.65
2018-08-31T13:23:17.148Z,1.75
2018-08-31T13:25:47.198Z,1.90
2018-08-31T13:28:16.609Z,1.50
2018-08-31T13:30:46.087Z,1.60
2018-08-31T13:33:15.379Z,1.55
2018-08-31T13:35:44.707Z,1.30
2018-08-31T13:38:15.091Z,1.67
2018-08-31T13:40:45.718Z,1.50
2018-08-31T13:43:15.289Z,1.63
2018-08-31T13:45:44.660Z,1.63
2018-08-31T13:48:14.202Z,1.70
2018-08-31T13:50:43.715Z,1.40
2018-08-31T13:53:15.050Z,1.70
2018-08-31T13:55:45.989Z,1.60
2018-08-31T13:58:15.644Z,1.80
2018-08-31T14:00:47.348Z,1.70
2018-08-31T14:03:17.302Z,1.65
2018-08-31T14:05:47.521Z,1.60
2018-08-31T14:08:17.096Z,1.47
2018-08-31T14:10:46.884Z,1.70
2018-08-31T14:13:18.483Z,1.60
2018-08-31T14:15:49.438Z,1.75
2018-08-31T14:18:20.051Z,1.67
2018-08-31T14:20:49.653Z,1.75
2018-08-31T14:23:19.406Z,1.63
2018-08-31T14:25:50.064Z,1.97
2018-08-31T14:28:19.277Z,2.00
2018-08-31T14:30:48.597Z,1.67
2018-08-31T14:33:18.774Z,1.70
2018-08-31T14:35:49.048Z,1.60
2018-08-31T14:38:18.472Z,1.48
2018-08-31T14:40:48.003Z,1.62
2018-08-31T14:43:17.305Z,1.73
2018-08-31T14:45:46.619Z,1.90
2018-08-31T14:48:17.292Z,1.90
2018-08-31T14:50:47.083Z,1.85
2018-08-31T14:53:16.256Z,2.00
2018-08-31T14:55:45.902Z,1.95
2018-08-31T14:58:15.345Z,2.10
2018-08-31T15:00:44.850Z,1.70
2018-08-31T15:03:14.497Z,2.00
2018-08-31T15:05:44.113Z,2.15
2018-08-31T15:08:13.709Z,2.28
2018-08-31T15:10:42.902Z,2.65
2018-08-31T15:13:12.522Z,2.67
2018-08-31T15:15:43.179Z,2.53
2018-08-31T15:18:12.727Z,2.70
2018-08-31T15:20:42.334Z,2.78
2018-08-31T15:23:11.946Z,2.62
2018-08-31T15:25:41.518Z,2.50
2018-08-31T15:28:10.779Z,2.95
2018-08-31T15:30:41.192Z,2.75
2018-08-31T15:33:10.701Z,3.00
2018-08-31T15:35:40.317Z,2.53
2018-08-31T15:38:10.209Z,2.47
2018-08-31T15:40:40.655Z,2.80
2018-08-31T15:43:10.077Z,2.50
2018-08-31T15:45:39.639Z,3.00
2018-08-31T15:48:09.466Z,2.53
2018-08-31T15:50:39.095Z,2.72
2018-08-31T15:53:08.477Z,2.50
2018-08-31T15:55:38.465Z,2.60
2018-08-31T15:58:09.238Z,2.67
2018-08-31T16:00:38.426Z,2.75
2018-08-31T16:03:07.761Z,2.92
2018-08-31T16:05:37.104Z,2.50
2018-08-31T16:08:07.648Z,2.72
2018-08-31T16:10:38.147Z,2.90
2018-08-31T16:13:08.723Z,2.60
2018-08-31T16:15:38.505Z,2.92
2018-08-31T16:18:08.192Z,2.78
2018-08-31T16:20:37.796Z,2.90
2018-08-31T16:23:10.217Z,3.10
2018-08-31T16:25:39.755Z,3.08
2018-08-31T16:28:08.944Z,3.50
2018-08-31T16:30:38.325Z,2.80
2018-08-31T16:33:08.589Z,3.47
2018-08-31T16:35:38.360Z,3.28
2018-08-31T16:38:07.902Z,3.45
2018-08-31T16:40:37.627Z,3.22
2018-08-31T16:43:07.190Z,3.08
2018-08-31T16:45:36.463Z,3.35
2018-08-31T16:48:05.866Z,3.53
2018-08-31T16:50:36.228Z,3.65
2018-08-31T16:53:05.981Z,3.45
2018-08-31T16:55:37.112Z,3.40
2018-08-31T16:58:06.838Z,3.50
2018-08-31T17:00:37.716Z,3.55
2018-08-31T17:03:07.480Z,3.62
2018-08-31T17:05:37.042Z,3.60
2018-08-31T17:08:06.507Z,3.92
2018-08-31T17:10:36.259Z,3.97
2018-08-31T17:13:06.199Z,4.03
2018-08-31T17:15:36.779Z,3.60
2018-08-31T17:18:07.485Z,3.62
2018-08-31T17:20:37.777Z,4.03
2018-08-31T17:23:09.659Z,3.70
2018-08-31T17:25:39.669Z,3.40
2018-08-31T17:31:08.811Z,3.65
2018-08-31T17:33:55.009Z,3.65
2018-08-31T17:36:42.840Z,3.87
2018-08-31T17:39:12.277Z,4.15
2018-08-31T17:41:41.845Z,4.68
2018-08-31T17:44:12.193Z,4.43
2018-08-31T17:46:41.728Z,4.53
2018-08-31T17:49:11.244Z,5.03
2018-08-31T17:51:41.773Z,5.45
2018-08-31T17:54:11.480Z,5.00
2018-08-31T17:56:40.989Z,5.20
2018-08-31T17:59:10.584Z,4.50
2018-08-31T18:01:41.127Z,4.50
2018-08-31T18:04:10.822Z,4.62
2018-08-31T18:06:41.718Z,4.90
2018-08-31T18:09:11.819Z,4.72
2018-08-31T18:11:41.410Z,4.10
2018-08-31T18:14:11.087Z,4.97
2018-08-31T18:16:41.042Z,4.80
2018-08-31T18:19:10.493Z,4.55
2018-08-31T18:21:40.125Z,4.72
2018-08-31T18:24:11.910Z,4.30
2018-08-31T18:26:41.008Z,4.10
2018-08-31T18:29:10.468Z,3.97
2018-08-31T18:31:40.725Z,3.80
2018-08-31T18:34:11.024Z,4.75
2018-08-31T18:36:40.424Z,4.18
2018-08-31T18:39:11.092Z,4.32
2018-08-31T18:41:40.830Z,4.82
2018-08-31T18:44:11.543Z,3.95
2018-08-31T18:46:41.290Z,4.30
2018-08-31T18:49:10.857Z,4.60
2018-08-31T18:51:40.549Z,4.30
2018-08-31T18:54:10.528Z,4.30
2018-08-31T18:56:40.868Z,4.20
2018-08-31T18:59:10.304Z,4.65
2018-08-31T19:01:40.383Z,5.35
2018-08-31T19:04:09.833Z,4.78
2018-08-31T19:06:39.164Z,4.45
2018-08-31T19:09:08.647Z,4.40
2018-08-31T19:11:38.786Z,4.25
2018-08-31T19:14:11.036Z,4.87
2018-08-31T19:16:41.627Z,4.90
2018-08-31T19:19:12.232Z,4.20
2018-08-31T19:21:41.885Z,3.67
2018-08-31T19:24:11.263Z,3.72
2018-08-31T19:26:40.658Z,3.08
2018-08-31T19:29:10.180Z,2.80
2018-08-31T19:31:40.104Z,3.00
2018-08-31T19:34:09.360Z,3.03
2018-08-31T19:36:38.940Z,3.10
2018-08-31T19:39:08.467Z,2.80
2018-08-31T19:41:38.217Z,3.47
2018-08-31T19:44:08.249Z,2.83
2018-08-31T19:46:37.813Z,3.30
2018-08-31T19:49:08.511Z,3.80
2018-08-31T19:51:37.962Z,3.50
2018-08-31T19:54:07.239Z,3.53
2018-08-31T19:56:36.926Z,3.12
2018-08-31T19:59:06.850Z,2.90
2018-08-31T20:01:36.300Z,3.05
2018-08-31T20:04:06.900Z,2.87
2018-08-31T20:06:36.293Z,3.00
2018-08-31T20:09:07.441Z,2.80
2018-08-31T20:11:37.072Z,2.80
2018-08-31T20:14:06.787Z,4.03
2018-08-31T20:16:36.105Z,2.85
2018-08-31T20:19:05.458Z,2.90
2018-08-31T20:21:35.355Z,3.15
2018-08-31T20:24:05.705Z,2.70
2018-08-31T20:26:35.521Z,2.35
2018-08-31T20:29:05.452Z,2.62
2018-08-31T20:31:34.872Z,2.50
2018-08-31T20:34:05.408Z,2.62
2018-08-31T20:36:35.645Z,2.53
2018-08-31T20:39:05.119Z,3.00
2018-08-31T20:41:34.491Z,2.60
2018-08-31T20:44:04.064Z,2.70
2018-08-31T20:46:33.676Z,2.50
2018-08-31T20:49:03.195Z,2.00
2018-08-31T20:51:32.976Z,2.97
2018-08-31T20:54:02.434Z,2.80
2018-08-31T20:56:31.748Z,2.42
2018-08-31T20:59:01.211Z,2.60
2018-08-31T21:01:31.594Z,2.30
2018-08-31T21:04:02.195Z,2.65
2018-08-31T21:06:32.220Z,2.40
2018-08-31T21:09:02.550Z,2.30
2018-08-31T21:11:31.990Z,2.40
2018-08-31T21:14:01.803Z,2.10
2018-08-31T21:16:31.320Z,2.20
2018-08-31T21:19:00.677Z,2.03
2018-08-31T21:21:30.018Z,2.00
2018-08-31T21:23:59.936Z,2.33
2018-08-31T21:26:30.599Z,2.30
2018-08-31T21:29:00.959Z,2.62
2018-08-31T21:31:30.283Z,2.33
2018-08-31T21:33:59.800Z,2.10
2018-08-31T21:36:29.382Z,2.35
2018-08-31T21:38:59.025Z,2.37
2018-08-31T21:41:28.589Z,2.28
2018-08-31T21:43:58.104Z,2.10
2018-08-31T21:46:29.144Z,2.00
2018-08-31T21:48:59.419Z,1.90
2018-08-31T21:51:30.384Z,3.45
2018-08-31T21:53:59.750Z,2.40
2018-08-31T21:56:29.325Z,2.05
2018-08-31T21:58:58.966Z,2.15
2018-08-31T22:01:28.531Z,2.10
2018-08-31T22:03:58.018Z,2.20
2018-08-31T22:06:28.144Z,2.33
2018-08-31T22:08:58.366Z,2.55
2018-08-31T22:11:27.982Z,2.50
2018-08-31T22:13:57.303Z,2.20
2018-08-31T22:16:26.996Z,2.15
2018-08-31T22:18:56.484Z,2.53
2018-08-31T22:21:26.210Z,2.55
2018-08-31T22:23:55.853Z,2.30
2018-08-31T22:26:25.212Z,2.17
2018-08-31T22:28:54.609Z,2.42
2018-08-31T22:31:24.418Z,2.37
2018-08-31T22:33:53.793Z,2.50
2018-08-31T22:36:23.105Z,2.20
2018-08-31T22:38:52.575Z,2.40
2018-08-31T22:41:22.033Z,2.33
2018-08-31T22:43:51.337Z,2.40
2018-08-31T22:46:20.872Z,2.35
2018-08-31T22:48:50.939Z,2.25
2018-08-31T22:51:20.722Z,2.20
2018-08-31T22:53:49.887Z,2.10
2018-08-31T22:56:19.191Z,1.80
2018-08-31T22:58:48.819Z,1.77
2018-08-31T23:01:18.411Z,1.62
2018-08-31T23:03:47.894Z,1.85
2018-08-31T23:06:17.209Z,1.50
2018-08-31T23:08:46.505Z,1.55
2018-08-31T23:11:16.459Z,1.75
2018-08-31T23:13:45.948Z,1.85
2018-08-31T23:16:15.420Z,1.75
2018-08-31T23:18:44.853Z,1.45
2018-08-31T23:21:14.277Z,1.90
2018-08-31T23:23:44.977Z,1.80
2018-08-31T23:26:14.346Z,1.80
2018-08-31T23:28:45.298Z,1.80
2018-08-31T23:31:14.914Z,2.00
2018-08-31T23:33:45.079Z,1.92
2018-08-31T23:36:14.738Z,2.15
2018-08-31T23:38:44.249Z,1.80
2018-08-31T23:41:13.759Z,1.80
2018-08-31T23:43:42.963Z,2.15
2018-08-31T23:46:12.754Z,1.65
2018-08-31T23:48:42.080Z,1.90
2018-08-31T23:51:13.090Z,1.80
2018-08-31T23:53:42.630Z,1.77
2018-08-31T23:56:11.903Z,1.73
2018-08-31T23:58:41.270Z,1.80
